createdAt,value
2018-12-10T00:00:34.586Z,54.3
2018-12-10T00:01:36.482Z,54.2
2018-12-10T00:02:38.379Z,54.2
2018-12-10T00:03:39.520Z,54.3
2018-12-10T00:04:40.866Z,54.4
2018-12-10T00:05:42.215Z,54
2018-12-10T00:06:43.540Z,54
2018-12-10T00:07:44.886Z,54.1
2018-12-10T00:08:46.509Z,54.1
2018-12-10T00:09:47.860Z,53.8
2018-12-10T00:10:49.478Z,53.6
2018-12-10T00:11:51.375Z,53.6
2018-12-10T00:12:53.273Z,53.7
2018-12-10T00:13:55.164Z,53.5
2018-12-10T00:14:56.762Z,53.7
2018-12-10T00:15:58.383Z,53.5
2018-12-10T00:17:00.279Z,53.4
2018-12-10T00:18:02.170Z,53.7
2018-12-10T00:19:04.065Z,53.6
2018-12-10T00:20:05.705Z,53.6
2018-12-10T00:21:07.323Z,53.5
2018-12-10T00:22:08.922Z,53.6
2018-12-10T00:23:10.542Z,53.7
2018-12-10T00:24:11.890Z,53.5
2018-12-10T00:25:13.501Z,53.6
2018-12-10T00:26:14.939Z,53.7
2018-12-10T00:27:16.260Z,53.9
2018-12-10T00:28:17.879Z,53.6
2018-12-10T00:29:19.498Z,53.6
2018-12-10T00:30:21.126Z,53.6
2018-12-10T00:31:22.449Z,53.6
2018-12-10T00:32:23.537Z,53.6
2018-12-10T00:33:25.149Z,53.6
2018-12-10T00:34:26.772Z,53.6
2018-12-10T00:35:28.092Z,53.8
2018-12-10T00:36:29.146Z,53.5
2018-12-10T00:37:30.767Z,53.5
2018-12-10T00:38:32.384Z,53.7
2018-12-10T00:39:34.005Z,53.5
2018-12-10T00:40:35.640Z,53.5
2018-12-10T00:41:37.522Z,53.7
2018-12-10T00:42:39.419Z,53.5
2018-12-10T00:43:40.741Z,53.5
2018-12-10T00:44:42.087Z,53.6
2018-12-10T00:45:43.981Z,53.4
2018-12-10T00:46:45.878Z,53.7
2018-12-10T00:47:47.479Z,54.1
2018-12-10T00:48:49.375Z,53.6
2018-12-10T00:49:50.993Z,53.8
2018-12-10T00:50:52.612Z,53.5
2018-12-10T00:51:54.231Z,53.5
2018-12-10T00:52:55.850Z,53.8
2018-12-10T00:53:57.472Z,53.7
2018-12-10T00:54:59.070Z,53.6
2018-12-10T00:56:00.690Z,53.6
2018-12-10T00:57:02.591Z,53.6
2018-12-10T00:58:03.929Z,53.4
2018-12-10T00:59:05.552Z,53.6
2018-12-10T01:00:07.173Z,53.7
2018-12-10T01:01:08.515Z,53.7
2018-12-10T01:02:09.837Z,53.8
2018-12-10T01:03:11.458Z,53.8
2018-12-10T01:04:12.506Z,53.8
2018-12-10T01:05:13.848Z,53.9
2018-12-10T01:06:15.448Z,53.8
2018-12-10T01:07:16.775Z,53.7
2018-12-10T01:08:18.671Z,53.7
2018-12-10T01:09:20.015Z,53.6
2018-12-10T01:10:21.357Z,53.7
2018-12-10T01:11:22.975Z,53.6
2018-12-10T01:12:24.596Z,53.6
2018-12-10T01:13:25.941Z,53.6
2018-12-10T01:14:27.839Z,53.6
2018-12-10T01:15:29.166Z,53.5
2018-12-10T01:16:30.785Z,53.5
2018-12-10T01:17:31.837Z,53.6
2018-12-10T01:18:33.452Z,53.8
2018-12-10T01:19:34.772Z,53.6
2018-12-10T01:20:36.171Z,53.5
2018-12-10T01:21:38.067Z,53.5
2018-12-10T01:22:39.461Z,53.8
2018-12-10T01:23:41.080Z,53.6
2018-12-10T01:24:42.977Z,53.6
2018-12-10T01:25:44.324Z,53.9
2018-12-10T01:26:45.922Z,53.5
2018-12-10T01:27:47.268Z,53.6
2018-12-10T01:28:49.166Z,53.6
2018-12-10T01:29:50.766Z,53.6
2018-12-10T01:30:51.811Z,53.4
2018-12-10T01:31:53.141Z,53.6
2018-12-10T01:32:55.051Z,53.5
2018-12-10T01:33:56.675Z,53.7
2018-12-10T01:34:58.296Z,53.7
2018-12-10T01:36:00.192Z,53.7
2018-12-10T01:37:01.811Z,53.5
2018-12-10T01:38:03.716Z,53.4
2018-12-10T01:39:05.062Z,53.5
2018-12-10T01:40:06.679Z,53.4
2018-12-10T01:41:08.026Z,53.8
2018-12-10T01:42:09.948Z,53.7
2018-12-10T01:43:11.843Z,53.7
2018-12-10T01:44:13.742Z,53.8
2018-12-10T01:45:15.639Z,53.8
2018-12-10T01:46:16.993Z,53.7
2018-12-10T01:47:18.894Z,53.7
2018-12-10T01:48:20.774Z,53.7
2018-12-10T01:49:22.394Z,53.7
2018-12-10T01:50:24.098Z,53.8
2018-12-10T01:51:25.716Z,53.7
2018-12-10T01:52:27.699Z,53.8
2018-12-10T01:53:29.041Z,53.7
2018-12-10T01:54:30.409Z,53.7
2018-12-10T01:55:32.030Z,53.7
2018-12-10T01:56:33.654Z,53.8
2018-12-10T01:57:35.272Z,53.7
2018-12-10T01:58:37.167Z,53.6
2018-12-10T01:59:38.854Z,53.6
2018-12-10T02:00:39.906Z,53.6
2018-12-10T02:01:41.799Z,53.7
2018-12-10T02:02:43.401Z,53.7
2018-12-10T02:03:45.291Z,53.7
2018-12-10T02:04:46.916Z,53.7
2018-12-10T02:05:48.507Z,53.8
2018-12-10T02:06:50.126Z,53.5
2018-12-10T02:07:51.727Z,53.4
2018-12-10T02:08:53.343Z,53.8
2018-12-10T02:09:54.690Z,53.8
2018-12-10T02:10:55.752Z,53.6
2018-12-10T02:11:57.072Z,53.7
2018-12-10T02:12:58.692Z,53.4
2018-12-10T02:13:59.843Z,53.8
2018-12-10T02:15:01.740Z,53.5
2018-12-10T02:16:03.093Z,53.5
2018-12-10T02:17:04.751Z,53.5
2018-12-10T02:18:06.643Z,53.8
2018-12-10T02:19:07.965Z,53.8
2018-12-10T02:20:09.288Z,53.7
2018-12-10T02:21:10.631Z,53.8
2018-12-10T02:22:12.248Z,53.7
2018-12-10T02:23:14.143Z,53.8
2018-12-10T02:24:15.466Z,53.7
2018-12-10T02:25:17.082Z,53.6
2018-12-10T02:26:18.681Z,53.6
2018-12-10T02:27:20.303Z,53.5
2018-12-10T02:28:21.657Z,53.4
2018-12-10T02:29:23.287Z,53.5
2018-12-10T02:30:24.915Z,53.3
2018-12-10T02:31:26.246Z,53.4
2018-12-10T02:32:27.866Z,53.3
2018-12-10T02:33:29.577Z,53.3
2018-12-10T02:34:30.955Z,53.2
2018-12-10T02:35:32.310Z,53.5
2018-12-10T02:36:33.930Z,53.2
2018-12-10T02:37:35.264Z,53.1
2018-12-10T02:38:36.611Z,53.2
2018-12-10T02:39:37.936Z,53
2018-12-10T02:40:39.592Z,53.2
2018-12-10T02:41:41.492Z,53.2
2018-12-10T02:42:43.110Z,53
2018-12-10T02:43:44.711Z,52.6
2018-12-10T02:44:46.604Z,52.7
2018-12-10T02:45:47.380Z,52.7
2018-12-10T02:46:49.289Z,52.6
2018-12-10T02:47:50.886Z,52.9
2018-12-10T02:48:52.777Z,52.4
2018-12-10T02:49:54.391Z,52.4
2018-12-10T02:50:55.989Z,52.4
2018-12-10T02:51:57.884Z,52.5
2018-12-10T02:52:59.527Z,53
2018-12-10T02:54:01.421Z,52.5
2018-12-10T02:55:03.313Z,52.6
2018-12-10T02:56:04.636Z,52.4
2018-12-10T02:57:06.237Z,52.6
2018-12-10T02:58:07.851Z,52.5
2018-12-10T02:59:09.742Z,52.5
2018-12-10T03:00:11.342Z,52.5
2018-12-10T03:01:13.385Z,52.7
2018-12-10T03:02:15.279Z,52.6
2018-12-10T03:03:16.323Z,52.5
2018-12-10T03:04:17.677Z,52.6
2018-12-10T03:05:18.727Z,52.6
2018-12-10T03:06:20.619Z,52.5
2018-12-10T03:07:22.513Z,52.6
2018-12-10T03:08:23.836Z,52.6
2018-12-10T03:09:25.232Z,52.5
2018-12-10T03:10:26.880Z,52.7
2018-12-10T03:11:28.779Z,52.8
2018-12-10T03:12:29.839Z,52.6
2018-12-10T03:13:31.455Z,52.7
2018-12-10T03:14:33.054Z,53.3
2018-12-10T03:15:34.400Z,52.6
2018-12-10T03:16:36.018Z,52.7
2018-12-10T03:17:38.006Z,52.6
2018-12-10T03:18:39.606Z,52.6
2018-12-10T03:19:41.501Z,52.7
2018-12-10T03:20:43.120Z,52.6
2018-12-10T03:21:44.457Z,52.5
2018-12-10T03:22:45.799Z,52.6
2018-12-10T03:23:47.427Z,52.5
2018-12-10T03:24:49.443Z,52.5
2018-12-10T03:25:50.541Z,52.6
2018-12-10T03:26:51.882Z,52.7
2018-12-10T03:27:53.247Z,52.6
2018-12-10T03:28:55.138Z,53
2018-12-10T03:29:57.032Z,52.9
2018-12-10T03:30:58.366Z,52.8
2018-12-10T03:32:00.144Z,52.9
2018-12-10T03:33:01.769Z,52.5
2018-12-10T03:34:03.660Z,52.5
2018-12-10T03:35:05.262Z,52.5
2018-12-10T03:36:06.587Z,53
2018-12-10T03:37:08.030Z,52.9
2018-12-10T03:38:09.650Z,52.6
2018-12-10T03:39:11.267Z,52.6
2018-12-10T03:40:12.883Z,52.6
2018-12-10T03:41:14.207Z,52.6
2018-12-10T03:42:16.105Z,52.5
2018-12-10T03:43:17.722Z,52.5
2018-12-10T03:44:19.616Z,52.7
2018-12-10T03:45:20.680Z,52.5
2018-12-10T03:46:22.575Z,52.6
2018-12-10T03:47:24.190Z,52.5
2018-12-10T03:48:26.084Z,52.6
2018-12-10T03:49:27.707Z,52.9
2018-12-10T03:50:29.323Z,52.8
2018-12-10T03:51:30.923Z,53
2018-12-10T03:52:32.820Z,53
2018-12-10T03:53:34.142Z,52.9
2018-12-10T03:54:36.037Z,52.9
2018-12-10T03:55:37.384Z,52.8
2018-12-10T03:56:38.981Z,52.6
2018-12-10T03:57:40.586Z,52.6
2018-12-10T03:58:42.479Z,52.6
2018-12-10T03:59:44.375Z,52.5
2018-12-10T04:00:46.271Z,52.7
2018-12-10T04:01:47.888Z,52.6
2018-12-10T04:02:49.508Z,52.7
2018-12-10T04:03:51.406Z,52.5
2018-12-10T04:04:52.749Z,52.7
2018-12-10T04:05:54.380Z,52.7
2018-12-10T04:06:56.275Z,52.8
2018-12-10T04:07:57.871Z,52.5
2018-12-10T04:08:59.471Z,52.5
2018-12-10T04:10:01.090Z,52.5
2018-12-10T04:11:02.157Z,52.6
2018-12-10T04:12:03.771Z,52.5
2018-12-10T04:13:05.366Z,52.7
2018-12-10T04:14:06.711Z,52.5
2018-12-10T04:15:07.778Z,52.5
2018-12-10T04:16:09.692Z,52.5
2018-12-10T04:17:11.329Z,52.7
2018-12-10T04:18:12.669Z,52.6
2018-12-10T04:19:14.014Z,52.6
2018-12-10T04:20:15.914Z,52.6
2018-12-10T04:21:17.531Z,52.4
2018-12-10T04:22:19.430Z,52.1
2018-12-10T04:23:20.773Z,52.3
2018-12-10T04:24:22.675Z,52.5
2018-12-10T04:25:24.262Z,52.5
2018-12-10T04:26:25.882Z,52.5
2018-12-10T04:27:27.885Z,52.5
2018-12-10T04:28:29.507Z,52.5
2018-12-10T04:29:31.104Z,52.4
2018-12-10T04:30:33.009Z,52.6
2018-12-10T04:31:36.858Z,52.1
2018-12-10T04:32:38.754Z,52.1
2018-12-10T04:33:40.074Z,52.2
2018-12-10T04:34:41.395Z,52.5
2018-12-10T04:35:42.718Z,52.9
2018-12-10T04:36:43.776Z,52.5
2018-12-10T04:37:45.662Z,52.5
2018-12-10T04:38:47.280Z,52.3
2018-12-10T04:39:48.897Z,52.4
2018-12-10T04:40:50.792Z,52.6
2018-12-10T04:41:52.419Z,52.2
2018-12-10T04:42:54.040Z,52.6
2018-12-10T04:43:55.661Z,52.2
2018-12-10T04:44:57.003Z,52.1
2018-12-10T04:45:58.953Z,52.2
2018-12-10T04:47:00.847Z,52.3
2018-12-10T04:48:02.464Z,52.1
2018-12-10T04:49:04.064Z,52.2
2018-12-10T04:50:05.677Z,52.1
2018-12-10T04:51:06.729Z,52.2
2018-12-10T04:52:08.050Z,52.5
2018-12-10T04:53:09.645Z,52.3
2018-12-10T04:54:10.989Z,52.2
2018-12-10T04:55:12.607Z,52.2
2018-12-10T04:56:14.504Z,52.2
2018-12-10T04:57:16.395Z,52
2018-12-10T04:58:18.286Z,52.5
2018-12-10T04:59:19.882Z,52.5
2018-12-10T05:00:21.777Z,52.2
2018-12-10T05:01:23.097Z,52.3
2018-12-10T05:02:24.420Z,52.3
2018-12-10T05:03:26.316Z,52.4
2018-12-10T05:04:27.388Z,52.3
2018-12-10T05:05:28.703Z,52.5
2018-12-10T05:06:30.598Z,52.2
2018-12-10T05:07:32.216Z,52.3
2018-12-10T05:08:33.565Z,52.6
2018-12-10T05:09:35.457Z,52.3
2018-12-10T05:10:37.074Z,52.1
2018-12-10T05:11:38.418Z,52.2
2018-12-10T05:12:39.766Z,52.1
2018-12-10T05:13:41.391Z,52.2
2018-12-10T05:14:43.010Z,52.2
2018-12-10T05:15:44.607Z,52.5
2018-12-10T05:16:46.230Z,52.4
2018-12-10T05:17:47.574Z,52.3
2018-12-10T05:18:49.190Z,52.2
2018-12-10T05:19:51.177Z,52.4
2018-12-10T05:20:52.794Z,52.2
2018-12-10T05:21:54.392Z,52.2
2018-12-10T05:22:56.286Z,52.2
2018-12-10T05:23:58.177Z,52.2
2018-12-10T05:24:59.774Z,52.1
2018-12-10T05:26:01.679Z,52.5
2018-12-10T05:27:03.562Z,52.1
2018-12-10T05:28:04.885Z,52.3
2018-12-10T05:29:06.506Z,52.1
2018-12-10T05:30:08.122Z,52.5
2018-12-10T05:31:09.744Z,52.2
2018-12-10T05:32:11.362Z,52.3
2018-12-10T05:33:12.979Z,52.2
2018-12-10T05:34:14.978Z,52.1
2018-12-10T05:35:16.867Z,52.2
2018-12-10T05:36:18.486Z,52.4
2018-12-10T05:37:20.132Z,52.3
2018-12-10T05:38:21.752Z,52.3
2018-12-10T05:39:23.094Z,52.2
2018-12-10T05:40:24.989Z,52.1
2018-12-10T05:41:26.333Z,52.2
2018-12-10T05:42:27.677Z,51.7
2018-12-10T05:43:29.569Z,51.6
2018-12-10T05:44:31.185Z,51.9
2018-12-10T05:45:32.788Z,52
2018-12-10T05:46:34.410Z,51.6
2018-12-10T05:47:36.034Z,51.5
2018-12-10T05:48:37.692Z,51.5
2018-12-10T05:49:39.280Z,51.9
2018-12-10T05:50:41.175Z,52.2
2018-12-10T05:51:42.494Z,52
2018-12-10T05:52:44.116Z,52.2
2018-12-10T05:53:45.734Z,51.6
2018-12-10T05:54:47.336Z,51.9
2018-12-10T05:55:49.227Z,51.9
2018-12-10T05:56:51.121Z,51.8
2018-12-10T05:57:53.013Z,51.9
2018-12-10T05:58:54.907Z,51.8
2018-12-10T05:59:56.528Z,51.6
2018-12-10T06:00:58.147Z,51.5
2018-12-10T06:02:00.040Z,51.5
2018-12-10T06:03:01.934Z,51.6
2018-12-10T06:04:03.951Z,51.6
2018-12-10T06:05:05.930Z,51.7
2018-12-10T06:06:07.830Z,52.3
2018-12-10T06:07:09.725Z,52.1
2018-12-10T06:08:10.780Z,52.2
2018-12-10T06:09:12.668Z,52.2
2018-12-10T06:10:14.311Z,52
2018-12-10T06:11:15.920Z,52.2
2018-12-10T06:12:17.243Z,52.3
2018-12-10T06:13:18.862Z,52.2
2018-12-10T06:14:20.207Z,52.3
2018-12-10T06:15:22.102Z,52.3
2018-12-10T06:16:24.011Z,52.2
2018-12-10T06:17:25.621Z,52.2
2018-12-10T06:18:27.250Z,52.1
2018-12-10T06:19:28.673Z,52.6
2018-12-10T06:20:30.268Z,52.2
2018-12-10T06:21:31.888Z,52.3
2018-12-10T06:22:33.542Z,52.3
2018-12-10T06:23:34.866Z,52.4
2018-12-10T06:24:38.708Z,52.1
2018-12-10T06:25:40.332Z,52.2
2018-12-10T06:26:41.950Z,52.2
2018-12-10T06:27:43.844Z,52.2
2018-12-10T06:28:45.466Z,52.2
2018-12-10T06:29:47.358Z,52.4
2018-12-10T06:30:48.975Z,51.9
2018-12-10T06:31:50.873Z,51.9
2018-12-10T06:32:52.768Z,52.2
2018-12-10T06:33:54.190Z,52
2018-12-10T06:34:56.082Z,51.6
2018-12-10T06:35:57.988Z,51.6
2018-12-10T06:36:59.606Z,51.9
2018-12-10T06:38:01.497Z,51.5
2018-12-10T06:39:03.392Z,51.5
2018-12-10T06:40:05.017Z,51.7
2018-12-10T06:41:06.366Z,52.1
2018-12-10T06:42:08.885Z,51.6
2018-12-10T06:43:10.780Z,51.8
2018-12-10T06:44:12.401Z,52.3
2018-12-10T06:45:14.298Z,52.2
2018-12-10T06:46:15.911Z,52
2018-12-10T06:47:17.803Z,52.1
2018-12-10T06:48:19.697Z,52.2
2018-12-10T06:49:21.313Z,52.2
2018-12-10T06:50:22.918Z,52.1
2018-12-10T06:51:24.542Z,52.3
2018-12-10T06:52:26.161Z,52.4
2018-12-10T06:53:27.781Z,52.1
2018-12-10T06:54:29.104Z,52.1
2018-12-10T06:55:30.725Z,52.1
2018-12-10T06:56:32.342Z,52.1
2018-12-10T06:57:34.235Z,52.6
2018-12-10T06:58:35.286Z,52.6
2018-12-10T06:59:36.900Z,52.5
2018-12-10T07:00:37.947Z,52.4
2018-12-10T07:01:39.566Z,52.6
2018-12-10T07:02:41.186Z,52.5
2018-12-10T07:03:43.079Z,52.6
2018-12-10T07:04:44.723Z,52.2
2018-12-10T07:05:46.321Z,52.6
2018-12-10T07:06:48.220Z,52.6
2018-12-10T07:07:49.588Z,52.6
2018-12-10T07:08:51.190Z,52.6
2018-12-10T07:09:53.083Z,52.5
2018-12-10T07:10:54.408Z,53.1
2018-12-10T07:11:56.026Z,52.7
2018-12-10T07:12:57.923Z,52.6
2018-12-10T07:13:58.972Z,52.5
2018-12-10T07:15:00.590Z,52.7
2018-12-10T07:16:02.578Z,52.7
2018-12-10T07:17:04.471Z,52.6
2018-12-10T07:18:05.864Z,52.5
2018-12-10T07:19:07.479Z,52.9
2018-12-10T07:20:09.380Z,52.5
2018-12-10T07:21:10.982Z,52.5
2018-12-10T07:22:12.602Z,52.6
2018-12-10T07:23:14.204Z,52.5
2018-12-10T07:24:15.869Z,52.4
2018-12-10T07:25:17.765Z,52.5
2018-12-10T07:26:19.363Z,52.7
2018-12-10T07:27:20.413Z,52.5
2018-12-10T07:28:22.037Z,52.1
2018-12-10T07:29:23.636Z,52.2
2018-12-10T07:30:24.960Z,52.6
2018-12-10T07:31:26.559Z,52.3
2018-12-10T07:32:27.900Z,52.5
2018-12-10T07:33:29.796Z,52.1
2018-12-10T07:34:31.141Z,51.9
2018-12-10T07:35:32.765Z,52.2
2018-12-10T07:36:33.815Z,52.3
2018-12-10T07:37:35.445Z,52.4
2018-12-10T07:38:37.344Z,52.2
2018-12-10T07:39:39.236Z,52
2018-12-10T07:40:40.555Z,52.2
2018-12-10T07:41:42.175Z,52.1
2018-12-10T07:42:43.775Z,52.2
2018-12-10T07:43:45.393Z,52.2
2018-12-10T07:44:47.284Z,52
2018-12-10T07:45:48.902Z,52.1
2018-12-10T07:46:50.797Z,52.6
2018-12-10T07:47:52.694Z,52.1
2018-12-10T07:48:54.313Z,51.9
2018-12-10T07:49:56.209Z,51.8
2018-12-10T07:50:57.831Z,51.5
2018-12-10T07:51:59.172Z,51.7
2018-12-10T07:53:00.799Z,51.5
2018-12-10T07:54:02.413Z,51.6
2018-12-10T07:55:04.014Z,51.5
2018-12-10T07:56:05.371Z,51.7
2018-12-10T07:57:06.725Z,51.9
2018-12-10T07:58:08.052Z,51.8
2018-12-10T07:59:09.946Z,52
2018-12-10T08:00:11.845Z,52
2018-12-10T08:01:13.443Z,52.2
2018-12-10T08:02:15.119Z,51.7
2018-12-10T08:03:16.780Z,52.1
2018-12-10T08:04:18.152Z,52.2
2018-12-10T08:05:19.281Z,52.3
2018-12-10T08:06:20.886Z,52.2
2018-12-10T08:07:22.214Z,52.5
2018-12-10T08:08:24.118Z,52.2
2018-12-10T08:09:25.833Z,52.2
2018-12-10T08:10:27.358Z,52
2018-12-10T08:11:28.425Z,52
2018-12-10T08:12:30.324Z,51.8
2018-12-10T08:13:32.254Z,51.8
2018-12-10T08:14:34.193Z,52.1
2018-12-10T08:15:35.542Z,52.2
2018-12-10T08:16:37.438Z,52.1
2018-12-10T08:17:39.056Z,51.9
2018-12-10T08:18:40.679Z,52.1
2018-12-10T08:19:42.207Z,52
2018-12-10T08:20:43.825Z,51.9
2018-12-10T08:21:45.448Z,52
2018-12-10T08:22:47.344Z,52
2018-12-10T08:23:49.236Z,52.1
2018-12-10T08:24:50.855Z,52
2018-12-10T08:25:52.473Z,51.9
2018-12-10T08:26:54.459Z,52.3
2018-12-10T08:27:56.354Z,52.3
2018-12-10T08:29:07.853Z,52.3
2018-12-10T08:30:08.918Z,52.3
2018-12-10T08:31:10.267Z,52.2
2018-12-10T08:32:11.890Z,52.1
2018-12-10T08:33:13.785Z,52.6
2018-12-10T08:34:15.475Z,52.2
2018-12-10T08:35:16.818Z,52.2
2018-12-10T08:36:18.719Z,52.4
2018-12-10T08:37:19.784Z,52.4
2018-12-10T08:38:21.401Z,52.3
2018-12-10T08:39:23.054Z,52.3
2018-12-10T08:40:24.914Z,52.6
2018-12-10T08:41:26.579Z,52.5
2018-12-10T08:42:28.458Z,52.5
2018-12-10T08:43:29.790Z,53.3
2018-12-10T08:44:31.683Z,52.6
2018-12-10T08:45:33.305Z,52.6
2018-12-10T08:46:34.924Z,52.8
2018-12-10T08:47:36.821Z,52.9
2018-12-10T08:48:38.447Z,52.8
2018-12-10T08:49:40.065Z,52.4
2018-12-10T08:50:41.695Z,52.6
2018-12-10T08:51:43.583Z,52.8
2018-12-10T08:52:45.480Z,52.6
2018-12-10T08:53:46.832Z,52.9
2018-12-10T08:54:48.457Z,52.9
2018-12-10T08:55:49.779Z,52.7
2018-12-10T08:56:51.407Z,52.9
2018-12-10T08:57:53.027Z,53.3
2018-12-10T08:58:54.650Z,53.4
2018-12-10T08:59:56.275Z,53
2018-12-10T09:00:58.277Z,52.9
2018-12-10T09:02:00.174Z,52.9
2018-12-10T09:03:01.794Z,52.9
2018-12-10T09:04:03.410Z,52.8
2018-12-10T09:05:05.035Z,52.9
2018-12-10T09:06:06.406Z,53
2018-12-10T09:07:07.182Z,52.9
2018-12-10T09:08:09.076Z,53
2018-12-10T09:09:10.969Z,53
2018-12-10T09:10:12.587Z,52.8
2018-12-10T09:11:14.213Z,52.6
2018-12-10T09:12:16.111Z,52.8
2018-12-10T09:13:18.011Z,52.8
2018-12-10T09:14:19.357Z,52.7
2018-12-10T09:15:21.360Z,53
2018-12-10T09:16:22.769Z,52.6
2018-12-10T09:17:24.115Z,52.6
2018-12-10T09:18:25.443Z,52.9
2018-12-10T09:19:26.792Z,52.6
2018-12-10T09:20:28.413Z,52.8
2018-12-10T09:21:30.356Z,52.6
2018-12-10T09:22:32.030Z,53
2018-12-10T09:23:33.756Z,52.9
2018-12-10T09:24:34.826Z,52.8
2018-12-10T09:25:36.178Z,52.7
2018-12-10T09:26:38.068Z,52.8
2018-12-10T09:27:39.409Z,53.3
2018-12-10T09:28:41.302Z,53.3
2018-12-10T09:29:43.398Z,52.7
2018-12-10T09:30:45.597Z,52.8
2018-12-10T09:31:47.225Z,52.8
2018-12-10T09:32:49.123Z,53.3
2018-12-10T09:33:50.450Z,53.8
2018-12-10T09:34:51.796Z,53
2018-12-10T09:35:53.140Z,52.8
2018-12-10T09:36:55.125Z,52.7
2018-12-10T09:37:56.903Z,52.9
2018-12-10T09:38:58.797Z,52.9
2018-12-10T09:40:00.667Z,52.7
2018-12-10T09:41:02.334Z,53.2
2018-12-10T09:42:04.027Z,52.6
2018-12-10T09:43:05.105Z,52.6
2018-12-10T09:44:06.428Z,52.7
2018-12-10T09:45:07.511Z,52.6
2018-12-10T09:46:08.876Z,52.4
2018-12-10T09:47:10.203Z,52.5
2018-12-10T09:48:11.871Z,52.5
2018-12-10T09:49:13.491Z,52.5
2018-12-10T09:50:15.388Z,52.6
2018-12-10T09:51:17.281Z,52.6
2018-12-10T09:52:18.630Z,52.5
2018-12-10T09:53:19.952Z,52.7
2018-12-10T09:54:21.280Z,52.5
2018-12-10T09:55:23.176Z,52.5
2018-12-10T09:56:24.523Z,52.6
2018-12-10T09:57:26.127Z,52.5
2018-12-10T09:58:27.759Z,52.6
2018-12-10T09:59:29.196Z,52.5
2018-12-10T10:00:30.817Z,52.4
2018-12-10T10:01:32.189Z,52.6
2018-12-10T10:02:34.092Z,52.7
2018-12-10T10:03:35.991Z,52.1
2018-12-10T10:04:36.810Z,52.5
2018-12-10T10:05:38.431Z,52.6
2018-12-10T10:06:40.029Z,52.6
2018-12-10T10:07:41.628Z,52.5
2018-12-10T10:08:43.266Z,52.5
2018-12-10T10:09:45.155Z,52.7
2018-12-10T10:10:47.055Z,52.4
2018-12-10T10:11:48.368Z,52.5
2018-12-10T10:12:49.988Z,52.3
2018-12-10T10:13:51.887Z,52.5
2018-12-10T10:14:54.343Z,52.5
2018-12-10T10:15:55.942Z,52.5
2018-12-10T10:16:57.291Z,52.6
2018-12-10T10:17:59.533Z,52.5
2018-12-10T10:19:00.881Z,52.5
2018-12-10T10:20:02.232Z,52.5
2018-12-10T10:21:03.851Z,52.6
2018-12-10T10:22:05.748Z,52.7
2018-12-10T10:23:07.064Z,52.6
2018-12-10T10:24:08.137Z,52.4
2018-12-10T10:25:09.733Z,52.5
2018-12-10T10:26:11.355Z,52.4
2018-12-10T10:27:12.974Z,52.7
2018-12-10T10:28:14.302Z,52.7
2018-12-10T10:29:15.517Z,52.5
2018-12-10T10:30:17.123Z,52.7
2018-12-10T10:31:18.818Z,52.7
2018-12-10T10:32:20.413Z,52.5
2018-12-10T10:33:21.482Z,52.5
2018-12-10T10:34:23.133Z,52.5
2018-12-10T10:35:25.281Z,52.3
2018-12-10T10:36:26.851Z,52.6
2018-12-10T10:37:28.945Z,52.6
2018-12-10T10:38:30.626Z,52.6
2018-12-10T10:39:32.238Z,52.5
2018-12-10T10:40:33.698Z,52.4
2018-12-10T10:41:35.823Z,52.5
2018-12-10T10:42:37.146Z,52.5
2018-12-10T10:43:38.782Z,52.6
2018-12-10T10:44:40.478Z,52.8
2018-12-10T10:45:42.105Z,52.5
2018-12-10T10:46:43.450Z,52.7
2018-12-10T10:47:45.081Z,52.7
2018-12-10T10:48:46.407Z,52.6
2018-12-10T10:49:48.483Z,52.6
2018-12-10T10:50:50.105Z,52.5
2018-12-10T10:51:51.723Z,52.6
2018-12-10T10:52:53.341Z,52.8
2018-12-10T10:53:54.964Z,52.6
2018-12-10T10:54:56.857Z,52.6
2018-12-10T10:55:58.841Z,52.7
2018-12-10T10:57:00.457Z,52.6
2018-12-10T10:58:02.057Z,53.2
2018-12-10T10:59:03.780Z,52.5
2018-12-10T11:00:05.405Z,52.6
2018-12-10T11:01:07.029Z,52.6
2018-12-10T11:02:08.922Z,52.6
2018-12-10T11:03:10.547Z,52.6
2018-12-10T11:04:12.165Z,52.6
2018-12-10T11:05:13.524Z,52.6
2018-12-10T11:06:14.625Z,52.5
2018-12-10T11:07:16.072Z,52.5
2018-12-10T11:08:17.974Z,52.8
2018-12-10T11:09:19.077Z,52.6
2018-12-10T11:10:20.976Z,52.6
2018-12-10T11:11:22.600Z,52.6
2018-12-10T11:12:23.677Z,52.7
2018-12-10T11:13:25.315Z,52.6
2018-12-10T11:14:27.271Z,52.9
2018-12-10T11:15:28.605Z,52.6
2018-12-10T11:16:30.231Z,52.6
2018-12-10T11:17:31.586Z,52.6
2018-12-10T11:18:33.491Z,52.6
2018-12-10T11:19:34.264Z,52.6
2018-12-10T11:20:36.177Z,52.6
2018-12-10T11:21:38.081Z,52.6
2018-12-10T11:22:40.994Z,52.7
2018-12-10T11:23:42.054Z,52.6
2018-12-10T11:24:43.455Z,52.6
2018-12-10T11:25:44.503Z,52.6
2018-12-10T11:26:46.399Z,52.6
2018-12-10T11:27:48.767Z,52.7
2018-12-10T11:28:50.523Z,52.7
2018-12-10T11:29:52.421Z,52.6
2018-12-10T11:30:54.316Z,52.6
2018-12-10T11:31:56.211Z,52.7
2018-12-10T11:32:58.199Z,52.7
2018-12-10T11:33:59.810Z,52.6
2018-12-10T11:35:01.225Z,52.6
2018-12-10T11:36:02.581Z,52.4
2018-12-10T11:37:04.246Z,52.7
2018-12-10T11:38:06.116Z,52.6
2018-12-10T11:39:07.812Z,52.8
2018-12-10T11:40:09.681Z,52.7
2018-12-10T11:41:11.636Z,53.1
2018-12-10T11:42:13.552Z,52.6
2018-12-10T11:43:15.449Z,52.6
2018-12-10T11:44:16.594Z,52.6
2018-12-10T11:45:18.331Z,53
2018-12-10T11:46:20.084Z,52.5
2018-12-10T11:47:21.753Z,52.6
2018-12-10T11:48:23.209Z,52.4
2018-12-10T11:49:25.490Z,52.1
2018-12-10T11:50:27.707Z,52
2018-12-10T11:51:29.656Z,51.7
2018-12-10T11:52:31.023Z,51.5
2018-12-10T11:53:33.065Z,52.1
2018-12-10T11:54:34.417Z,51.6
2018-12-10T11:55:36.421Z,51.6
2018-12-10T11:56:38.322Z,51.4
2018-12-10T11:57:39.923Z,51.7
2018-12-10T11:58:40.976Z,51.3
2018-12-10T11:59:42.870Z,51.6
2018-12-10T12:00:44.219Z,51.6
2018-12-10T12:01:45.561Z,51.5
2018-12-10T12:02:47.160Z,51.1
2018-12-10T12:03:49.058Z,51
2018-12-10T12:04:50.385Z,51.1
2018-12-10T12:05:52.388Z,51.2
2018-12-10T12:06:54.014Z,51
2018-12-10T12:07:55.357Z,51.4
2018-12-10T12:08:56.994Z,51.2
2018-12-10T12:09:58.337Z,51
2018-12-10T12:11:00.230Z,51.4
2018-12-10T12:12:02.127Z,50.8
2018-12-10T12:13:04.099Z,50.8
2018-12-10T12:14:05.142Z,51
2018-12-10T12:15:06.468Z,50.9
2018-12-10T12:16:08.066Z,51.1
2018-12-10T12:17:09.686Z,51
2018-12-10T12:18:11.033Z,50.9
2018-12-10T12:19:12.140Z,51
2018-12-10T12:20:13.746Z,51.1
2018-12-10T12:21:15.642Z,51.1
2018-12-10T12:22:16.415Z,51
2018-12-10T12:23:17.760Z,51
2018-12-10T12:24:18.828Z,51.3
2018-12-10T12:25:20.719Z,51.1
2018-12-10T12:26:22.615Z,51.4
2018-12-10T12:27:24.445Z,51.3
2018-12-10T12:28:26.050Z,51.3
2018-12-10T12:29:27.095Z,51.4
2018-12-10T12:30:28.443Z,51.5
2018-12-10T12:31:29.838Z,51.5
2018-12-10T12:32:31.734Z,51.4
2018-12-10T12:33:33.085Z,51.4
2018-12-10T12:34:34.977Z,51.8
2018-12-10T12:35:36.598Z,51.6
2018-12-10T12:36:38.217Z,52.1
2018-12-10T12:37:39.838Z,51.7
2018-12-10T12:38:41.183Z,51.6
2018-12-10T12:39:42.528Z,51.7
2018-12-10T12:40:44.130Z,51.7
2018-12-10T12:41:45.472Z,51.6
2018-12-10T12:42:47.093Z,51.5
2018-12-10T12:43:48.995Z,51.8
2018-12-10T12:44:50.319Z,52.6
2018-12-10T12:45:52.215Z,52.2
2018-12-10T12:46:54.109Z,52.1
2018-12-10T12:47:55.727Z,52.3
2018-12-10T12:48:57.073Z,52.1
2018-12-10T12:49:58.965Z,52.6
2018-12-10T12:51:00.584Z,52.7
2018-12-10T12:52:01.935Z,52.3
2018-12-10T12:53:03.828Z,52.3
2018-12-10T12:54:05.723Z,52.2
2018-12-10T12:55:07.620Z,52.2
2018-12-10T12:56:09.246Z,52.2
2018-12-10T12:57:10.864Z,52.3
2018-12-10T12:58:12.182Z,52.2
2018-12-10T12:59:13.505Z,52.4
2018-12-10T13:00:15.127Z,52.3
2018-12-10T13:01:16.727Z,52.2
2018-12-10T13:02:18.359Z,52.2
2018-12-10T13:03:19.684Z,52.1
2018-12-10T13:04:21.483Z,51.7
2018-12-10T13:05:23.119Z,51.7
2018-12-10T13:06:24.445Z,51.6
2018-12-10T13:07:26.341Z,51.6
2018-12-10T13:08:31.373Z,51.6
2018-12-10T13:09:32.717Z,51.7
2018-12-10T13:10:34.337Z,51.6
2018-12-10T13:11:37.712Z,51.6
2018-12-10T13:12:39.604Z,51.7
2018-12-10T13:13:40.658Z,52.3
2018-12-10T13:14:42.257Z,52.4
2018-12-10T13:15:43.307Z,52.1
2018-12-10T13:16:50.117Z,52.4
2018-12-10T13:17:51.461Z,51.5
2018-12-10T13:18:53.081Z,51.6
2018-12-10T13:19:54.767Z,51.5
2018-12-10T13:20:56.661Z,51.7
2018-12-10T13:21:58.279Z,51.2
2018-12-10T13:23:00.172Z,51.2
2018-12-10T13:24:02.067Z,51.3
2018-12-10T13:25:03.668Z,51.7
2018-12-10T13:26:05.291Z,51.7
2018-12-10T13:27:06.340Z,52.3
2018-12-10T13:28:07.960Z,51.6
2018-12-10T13:29:09.538Z,51.4
2018-12-10T13:30:11.073Z,50.8
2018-12-10T13:31:12.963Z,50.7
2018-12-10T13:32:14.859Z,51
2018-12-10T13:33:16.207Z,50.8
2018-12-10T13:34:17.550Z,50.5
2018-12-10T13:35:18.601Z,50.7
2018-12-10T13:36:20.226Z,50.7
2018-12-10T13:37:22.123Z,50.9
2018-12-10T13:38:23.740Z,50.9
2018-12-10T13:39:25.359Z,51.3
2018-12-10T13:40:26.983Z,51
2018-12-10T13:41:28.604Z,50.5
2018-12-10T13:42:30.501Z,49.9
2018-12-10T13:43:32.403Z,49.9